sensor_id;sensor_type;location;lat;lon;timestamp;P1;durP1;ratioP1;P2;durP2;ratioP2
20251;SDS011;10284;58.364;15.550;2023-05-29T00:00:41;3.13;;;0.73;;
20251;SDS011;10284;58.364;15.550;2023-05-29T00:03:07;4.18;;;1.10;;
20251;SDS011;10284;58.364;15.550;2023-05-29T00:05:34;4.57;;;0.95;;
20251;SDS011;10284;58.364;15.550;2023-05-29T00:08:00;4.70;;;1.00;;
20251;SDS011;10284;58.364;15.550;2023-05-29T00:10:25;2.45;;;1.00;;
20251;SDS011;10284;58.364;15.550;2023-05-29T00:12:51;3.65;;;1.00;;
20251;SDS011;10284;58.364;15.550;2023-05-29T00:15:16;9.55;;;1.10;;
20251;SDS011;10284;58.364;15.550;2023-05-29T00:17:42;3.00;;;0.82;;
20251;SDS011;10284;58.364;15.550;2023-05-29T00:20:08;4.90;;;1.27;;
20251;SDS011;10284;58.364;15.550;2023-05-29T00:22:37;6.63;;;1.40;;
20251;SDS011;10284;58.364;15.550;2023-05-29T00:25:05;7.07;;;1.30;;
20251;SDS011;10284;58.364;15.550;2023-05-29T00:27:32;8.00;;;1.27;;
20251;SDS011;10284;58.364;15.550;2023-05-29T00:29:58;3.72;;;1.13;;
20251;SDS011;10284;58.364;15.550;2023-05-29T00:32:23;7.63;;;1.13;;
20251;SDS011;10284;58.364;15.550;2023-05-29T00:34:50;7.72;;;1.38;;
20251;SDS011;10284;58.364;15.550;2023-05-29T00:37:16;8.48;;;1.45;;
20251;SDS011;10284;58.364;15.550;2023-05-29T00:39:42;2.22;;;1.05;;
20251;SDS011;10284;58.364;15.550;2023-05-29T00:42:07;7.22;;;1.08;;
20251;SDS011;10284;58.364;15.550;2023-05-29T00:44:33;2.03;;;0.88;;
20251;SDS011;10284;58.364;15.550;2023-05-29T00:46:58;3.92;;;1.23;;
20251;SDS011;10284;58.364;15.550;2023-05-29T00:49:24;7.72;;;1.25;;
20251;SDS011;10284;58.364;15.550;2023-05-29T00:51:50;8.48;;;0.95;;
20251;SDS011;10284;58.364;15.550;2023-05-29T00:54:17;6.50;;;1.40;;
20251;SDS011;10284;58.364;15.550;2023-05-29T00:56:46;4.47;;;1.48;;
20251;SDS011;10284;58.364;15.550;2023-05-29T00:59:17;5.00;;;1.00;;
20251;SDS011;10284;58.364;15.550;2023-05-29T01:01:44;3.03;;;1.00;;
20251;SDS011;10284;58.364;15.550;2023-05-29T01:04:10;6.15;;;1.40;;
20251;SDS011;10284;58.364;15.550;2023-05-29T01:06:37;4.25;;;1.25;;
20251;SDS011;10284;58.364;15.550;2023-05-29T01:09:04;5.25;;;1.40;;
20251;SDS011;10284;58.364;15.550;2023-05-29T01:14:08;3.88;;;1.05;;
20251;SDS011;10284;58.364;15.550;2023-05-29T01:21:42;4.60;;;1.33;;
20251;SDS011;10284;58.364;15.550;2023-05-29T01:24:58;5.38;;;1.65;;
20251;SDS011;10284;58.364;15.550;2023-05-29T01:27:24;6.32;;;1.15;;
20251;SDS011;10284;58.364;15.550;2023-05-29T01:29:51;7.75;;;1.20;;
20251;SDS011;10284;58.364;15.550;2023-05-29T01:32:17;4.35;;;1.00;;
20251;SDS011;10284;58.364;15.550;2023-05-29T01:34:42;4.93;;;1.30;;
20251;SDS011;10284;58.364;15.550;2023-05-29T01:37:08;7.38;;;1.10;;
20251;SDS011;10284;58.364;15.550;2023-05-29T01:39:33;7.82;;;1.20;;
20251;SDS011;10284;58.364;15.550;2023-05-29T01:41:59;3.58;;;1.08;;
20251;SDS011;10284;58.364;15.550;2023-05-29T01:44:25;5.00;;;1.30;;
20251;SDS011;10284;58.364;15.550;2023-05-29T01:46:51;4.78;;;1.20;;
20251;SDS011;10284;58.364;15.550;2023-05-29T01:49:17;9.13;;;2.00;;
20251;SDS011;10284;58.364;15.550;2023-05-29T01:51:43;4.82;;;1.00;;
20251;SDS011;10284;58.364;15.550;2023-05-29T01:54:09;5.85;;;1.02;;
20251;SDS011;10284;58.364;15.550;2023-05-29T01:56:34;8.02;;;1.30;;
20251;SDS011;10284;58.364;15.550;2023-05-29T01:59:01;3.55;;;1.13;;
20251;SDS011;10284;58.364;15.550;2023-05-29T02:01:27;4.53;;;1.27;;
20251;SDS011;10284;58.364;15.550;2023-05-29T02:03:53;4.20;;;0.90;;
20251;SDS011;10284;58.364;15.550;2023-05-29T02:06:18;6.13;;;1.08;;
20251;SDS011;10284;58.364;15.550;2023-05-29T02:08:44;4.18;;;0.98;;
20251;SDS011;10284;58.364;15.550;2023-05-29T02:11:10;3.90;;;1.10;;
20251;SDS011;10284;58.364;15.550;2023-05-29T02:13:35;4.72;;;1.05;;
20251;SDS011;10284;58.364;15.550;2023-05-29T02:16:00;7.07;;;1.25;;
20251;SDS011;10284;58.364;15.550;2023-05-29T02:18:26;3.25;;;1.20;;
20251;SDS011;10284;58.364;15.550;2023-05-29T02:20:51;5.78;;;1.10;;
20251;SDS011;10284;58.364;15.550;2023-05-29T02:23:17;8.20;;;1.80;;
20251;SDS011;10284;58.364;15.550;2023-05-29T02:25:44;3.10;;;1.10;;
20251;SDS011;10284;58.364;15.550;2023-05-29T02:28:10;7.78;;;1.65;;
20251;SDS011;10284;58.364;15.550;2023-05-29T02:30:35;6.28;;;1.50;;
20251;SDS011;10284;58.364;15.550;2023-05-29T02:33:01;6.80;;;1.27;;
20251;SDS011;10284;58.364;15.550;2023-05-29T02:35:26;4.35;;;1.15;;
20251;SDS011;10284;58.364;15.550;2023-05-29T02:37:52;4.28;;;1.65;;
20251;SDS011;10284;58.364;15.550;2023-05-29T02:40:18;6.00;;;1.25;;
20251;SDS011;10284;58.364;15.550;2023-05-29T02:42:44;5.45;;;1.20;;
20251;SDS011;10284;58.364;15.550;2023-05-29T02:45:10;2.45;;;0.95;;
20251;SDS011;10284;58.364;15.550;2023-05-29T02:47:35;2.60;;;0.88;;
20251;SDS011;10284;58.364;15.550;2023-05-29T02:50:01;2.47;;;1.00;;
20251;SDS011;10284;58.364;15.550;2023-05-29T02:52:27;1.98;;;1.00;;
20251;SDS011;10284;58.364;15.550;2023-05-29T02:54:53;4.15;;;1.10;;
20251;SDS011;10284;58.364;15.550;2023-05-29T02:57:19;2.97;;;0.90;;
20251;SDS011;10284;58.364;15.550;2023-05-29T02:59:45;6.50;;;1.35;;
20251;SDS011;10284;58.364;15.550;2023-05-29T03:02:11;6.20;;;1.08;;
20251;SDS011;10284;58.364;15.550;2023-05-29T03:04:36;4.60;;;1.25;;
20251;SDS011;10284;58.364;15.550;2023-05-29T03:07:02;3.10;;;1.48;;
20251;SDS011;10284;58.364;15.550;2023-05-29T03:09:27;4.50;;;1.38;;
20251;SDS011;10284;58.364;15.550;2023-05-29T03:11:53;3.60;;;1.35;;
20251;SDS011;10284;58.364;15.550;2023-05-29T03:14:18;6.70;;;1.25;;
20251;SDS011;10284;58.364;15.550;2023-05-29T03:16:44;5.28;;;1.00;;
20251;SDS011;10284;58.364;15.550;2023-05-29T03:19:10;6.90;;;1.40;;
20251;SDS011;10284;58.364;15.550;2023-05-29T03:21:36;7.03;;;1.42;;
20251;SDS011;10284;58.364;15.550;2023-05-29T03:24:01;7.60;;;1.10;;
20251;SDS011;10284;58.364;15.550;2023-05-29T03:26:30;8.07;;;1.02;;
20251;SDS011;10284;58.364;15.550;2023-05-29T03:28:56;6.05;;;1.50;;
20251;SDS011;10284;58.364;15.550;2023-05-29T03:31:21;6.60;;;1.20;;
20251;SDS011;10284;58.364;15.550;2023-05-29T03:33:47;6.28;;;1.35;;
20251;SDS011;10284;58.364;15.550;2023-05-29T03:36:14;5.90;;;1.40;;
20251;SDS011;10284;58.364;15.550;2023-05-29T03:38:42;3.53;;;1.05;;
20251;SDS011;10284;58.364;15.550;2023-05-29T03:41:08;3.10;;;1.00;;
20251;SDS011;10284;58.364;15.550;2023-05-29T03:43:33;4.25;;;1.17;;
20251;SDS011;10284;58.364;15.550;2023-05-29T03:45:59;6.20;;;0.95;;
20251;SDS011;10284;58.364;15.550;2023-05-29T03:48:24;6.25;;;1.40;;
20251;SDS011;10284;58.364;15.550;2023-05-29T03:50:50;6.88;;;1.38;;
20251;SDS011;10284;58.364;15.550;2023-05-29T03:53:15;5.85;;;1.30;;
20251;SDS011;10284;58.364;15.550;2023-05-29T03:55:41;8.38;;;1.38;;
20251;SDS011;10284;58.364;15.550;2023-05-29T03:58:06;7.72;;;1.75;;
20251;SDS011;10284;58.364;15.550;2023-05-29T04:00:32;6.93;;;1.40;;
20251;SDS011;10284;58.364;15.550;2023-05-29T04:02:57;4.82;;;1.67;;
20251;SDS011;10284;58.364;15.550;2023-05-29T04:05:23;9.73;;;1.83;;
20251;SDS011;10284;58.364;15.550;2023-05-29T04:07:48;10.30;;;2.22;;
20251;SDS011;10284;58.364;15.550;2023-05-29T04:10:14;10.20;;;1.48;;
20251;SDS011;10284;58.364;15.550;2023-05-29T04:12:39;5.78;;;1.20;;
20251;SDS011;10284;58.364;15.550;2023-05-29T04:15:05;7.55;;;2.42;;
20251;SDS011;10284;58.364;15.550;2023-05-29T04:17:31;6.25;;;1.85;;
20251;SDS011;10284;58.364;15.550;2023-05-29T04:19:57;7.90;;;1.90;;
20251;SDS011;10284;58.364;15.550;2023-05-29T04:22:22;5.85;;;1.55;;
20251;SDS011;10284;58.364;15.550;2023-05-29T04:24:47;4.22;;;1.60;;
20251;SDS011;10284;58.364;15.550;2023-05-29T04:27:13;7.38;;;1.70;;
20251;SDS011;10284;58.364;15.550;2023-05-29T04:29:40;9.85;;;1.95;;
20251;SDS011;10284;58.364;15.550;2023-05-29T04:32:10;6.80;;;1.52;;
20251;SDS011;10284;58.364;15.550;2023-05-29T04:34:39;5.38;;;1.45;;
20251;SDS011;10284;58.364;15.550;2023-05-29T04:37:05;7.45;;;1.65;;
20251;SDS011;10284;58.364;15.550;2023-05-29T04:39:31;5.55;;;1.50;;
20251;SDS011;10284;58.364;15.550;2023-05-29T04:41:57;7.43;;;1.63;;
20251;SDS011;10284;58.364;15.550;2023-05-29T04:44:25;7.85;;;1.80;;
20251;SDS011;10284;58.364;15.550;2023-05-29T04:46:51;6.82;;;1.15;;
20251;SDS011;10284;58.364;15.550;2023-05-29T04:49:17;3.53;;;1.38;;
20251;SDS011;10284;58.364;15.550;2023-05-29T04:51:43;2.97;;;1.02;;
20251;SDS011;10284;58.364;15.550;2023-05-29T04:54:10;5.35;;;1.70;;
20251;SDS011;10284;58.364;15.550;2023-05-29T04:56:36;2.75;;;1.40;;
20251;SDS011;10284;58.364;15.550;2023-05-29T04:59:02;3.65;;;1.27;;
20251;SDS011;10284;58.364;15.550;2023-05-29T05:01:27;2.00;;;1.02;;
20251;SDS011;10284;58.364;15.550;2023-05-29T05:03:53;1.65;;;1.10;;
20251;SDS011;10284;58.364;15.550;2023-05-29T05:06:21;4.38;;;1.58;;
20251;SDS011;10284;58.364;15.550;2023-05-29T05:08:47;3.65;;;1.10;;
20251;SDS011;10284;58.364;15.550;2023-05-29T05:11:12;4.32;;;1.20;;
20251;SDS011;10284;58.364;15.550;2023-05-29T05:13:38;5.97;;;1.40;;
20251;SDS011;10284;58.364;15.550;2023-05-29T05:16:04;2.25;;;0.98;;
20251;SDS011;10284;58.364;15.550;2023-05-29T05:18:30;1.55;;;1.00;;
20251;SDS011;10284;58.364;15.550;2023-05-29T05:20:55;2.90;;;1.05;;
20251;SDS011;10284;58.364;15.550;2023-05-29T05:23:20;2.85;;;1.10;;
20251;SDS011;10284;58.364;15.550;2023-05-29T05:25:46;2.78;;;1.40;;
20251;SDS011;10284;58.364;15.550;2023-05-29T05:28:11;4.68;;;1.35;;
20251;SDS011;10284;58.364;15.550;2023-05-29T05:30:38;1.85;;;1.00;;
20251;SDS011;10284;58.364;15.550;2023-05-29T05:33:03;3.97;;;1.05;;
20251;SDS011;10284;58.364;15.550;2023-05-29T05:35:29;4.07;;;0.98;;
20251;SDS011;10284;58.364;15.550;2023-05-29T05:37:54;2.85;;;1.17;;
20251;SDS011;10284;58.364;15.550;2023-05-29T05:40:22;3.75;;;1.33;;
20251;SDS011;10284;58.364;15.550;2023-05-29T05:42:48;4.13;;;1.38;;
20251;SDS011;10284;58.364;15.550;2023-05-29T05:45:14;2.90;;;0.90;;
20251;SDS011;10284;58.364;15.550;2023-05-29T05:47:39;5.60;;;1.33;;
20251;SDS011;10284;58.364;15.550;2023-05-29T05:50:05;1.92;;;1.10;;
20251;SDS011;10284;58.364;15.550;2023-05-29T05:52:31;2.03;;;1.05;;
20251;SDS011;10284;58.364;15.550;2023-05-29T05:54:57;1.80;;;1.05;;
20251;SDS011;10284;58.364;15.550;2023-05-29T05:57:23;2.80;;;1.10;;
20251;SDS011;10284;58.364;15.550;2023-05-29T05:59:48;2.65;;;1.10;;
20251;SDS011;10284;58.364;15.550;2023-05-29T06:02:14;2.92;;;0.80;;
20251;SDS011;10284;58.364;15.550;2023-05-29T06:04:40;1.73;;;1.08;;
20251;SDS011;10284;58.364;15.550;2023-05-29T06:07:05;3.22;;;1.08;;
20251;SDS011;10284;58.364;15.550;2023-05-29T06:09:31;3.50;;;1.25;;
20251;SDS011;10284;58.364;15.550;2023-05-29T06:11:56;2.38;;;0.90;;
20251;SDS011;10284;58.364;15.550;2023-05-29T06:14:23;4.22;;;1.38;;
20251;SDS011;10284;58.364;15.550;2023-05-29T06:16:48;2.20;;;1.10;;
20251;SDS011;10284;58.364;15.550;2023-05-29T06:19:14;1.13;;;1.02;;
20251;SDS011;10284;58.364;15.550;2023-05-29T06:21:40;2.90;;;1.02;;
20251;SDS011;10284;58.364;15.550;2023-05-29T06:24:05;1.52;;;0.80;;
20251;SDS011;10284;58.364;15.550;2023-05-29T06:26:31;3.53;;;0.95;;
20251;SDS011;10284;58.364;15.550;2023-05-29T06:28:57;3.92;;;1.30;;
20251;SDS011;10284;58.364;15.550;2023-05-29T06:31:22;1.60;;;1.00;;
20251;SDS011;10284;58.364;15.550;2023-05-29T06:33:48;5.88;;;1.45;;
20251;SDS011;10284;58.364;15.550;2023-05-29T06:36:13;5.05;;;1.17;;
20251;SDS011;10284;58.364;15.550;2023-05-29T06:38:38;1.13;;;1.00;;
20251;SDS011;10284;58.364;15.550;2023-05-29T06:41:05;1.42;;;1.05;;
20251;SDS011;10284;58.364;15.550;2023-05-29T06:43:30;1.20;;;0.93;;
20251;SDS011;10284;58.364;15.550;2023-05-29T06:45:56;2.30;;;0.82;;
20251;SDS011;10284;58.364;15.550;2023-05-29T06:48:21;2.45;;;1.10;;
20251;SDS011;10284;58.364;15.550;2023-05-29T06:50:47;1.35;;;0.75;;
20251;SDS011;10284;58.364;15.550;2023-05-29T06:53:13;1.92;;;0.90;;
20251;SDS011;10284;58.364;15.550;2023-05-29T06:55:38;2.88;;;1.00;;
20251;SDS011;10284;58.364;15.550;2023-05-29T06:58:05;1.45;;;1.10;;
20251;SDS011;10284;58.364;15.550;2023-05-29T07:00:31;2.05;;;0.95;;
20251;SDS011;10284;58.364;15.550;2023-05-29T07:02:57;3.13;;;0.82;;
20251;SDS011;10284;58.364;15.550;2023-05-29T07:05:22;1.50;;;0.90;;
20251;SDS011;10284;58.364;15.550;2023-05-29T07:07:48;5.68;;;1.23;;
20251;SDS011;10284;58.364;15.550;2023-05-29T07:10:13;1.13;;;0.90;;
20251;SDS011;10284;58.364;15.550;2023-05-29T07:12:39;2.42;;;0.70;;
20251;SDS011;10284;58.364;15.550;2023-05-29T07:15:04;2.65;;;0.80;;
20251;SDS011;10284;58.364;15.550;2023-05-29T07:17:30;1.23;;;0.98;;
20251;SDS011;10284;58.364;15.550;2023-05-29T07:19:55;1.88;;;1.02;;
20251;SDS011;10284;58.364;15.550;2023-05-29T07:22:21;1.30;;;0.90;;
20251;SDS011;10284;58.364;15.550;2023-05-29T07:24:46;2.00;;;0.88;;
20251;SDS011;10284;58.364;15.550;2023-05-29T07:27:12;1.25;;;1.00;;
20251;SDS011;10284;58.364;15.550;2023-05-29T07:29:37;2.70;;;1.00;;
20251;SDS011;10284;58.364;15.550;2023-05-29T07:32:03;1.00;;;0.90;;
20251;SDS011;10284;58.364;15.550;2023-05-29T07:34:28;1.25;;;1.00;;
20251;SDS011;10284;58.364;15.550;2023-05-29T07:36:57;1.58;;;1.20;;
20251;SDS011;10284;58.364;15.550;2023-05-29T07:39:26;2.53;;;1.48;;
20251;SDS011;10284;58.364;15.550;2023-05-29T07:41:52;1.83;;;0.75;;
20251;SDS011;10284;58.364;15.550;2023-05-29T07:44:18;1.98;;;0.80;;
20251;SDS011;10284;58.364;15.550;2023-05-29T07:46:43;2.58;;;1.13;;
20251;SDS011;10284;58.364;15.550;2023-05-29T07:49:09;2.70;;;1.00;;
20251;SDS011;10284;58.364;15.550;2023-05-29T07:51:34;0.85;;;0.77;;
20251;SDS011;10284;58.364;15.550;2023-05-29T07:54:00;2.80;;;0.80;;
20251;SDS011;10284;58.364;15.550;2023-05-29T07:56:26;4.38;;;0.85;;
20251;SDS011;10284;58.364;15.550;2023-05-29T07:58:51;3.00;;;1.23;;
20251;SDS011;10284;58.364;15.550;2023-05-29T08:01:18;2.03;;;0.90;;
20251;SDS011;10284;58.364;15.550;2023-05-29T08:03:44;2.03;;;1.10;;
20251;SDS011;10284;58.364;15.550;2023-05-29T08:06:10;2.25;;;0.90;;
20251;SDS011;10284;58.364;15.550;2023-05-29T08:08:35;0.88;;;0.80;;
20251;SDS011;10284;58.364;15.550;2023-05-29T08:11:01;1.30;;;0.82;;
20251;SDS011;10284;58.364;15.550;2023-05-29T08:13:26;1.60;;;1.08;;
20251;SDS011;10284;58.364;15.550;2023-05-29T08:15:52;5.30;;;1.00;;
20251;SDS011;10284;58.364;15.550;2023-05-29T08:18:18;1.98;;;1.00;;
20251;SDS011;10284;58.364;15.550;2023-05-29T08:20:43;1.58;;;0.98;;
20251;SDS011;10284;58.364;15.550;2023-05-29T08:23:10;1.38;;;1.00;;
20251;SDS011;10284;58.364;15.550;2023-05-29T08:25:35;1.95;;;0.98;;
20251;SDS011;10284;58.364;15.550;2023-05-29T08:28:01;3.17;;;1.00;;
20251;SDS011;10284;58.364;15.550;2023-05-29T08:30:26;2.35;;;0.95;;
20251;SDS011;10284;58.364;15.550;2023-05-29T08:32:51;1.70;;;1.00;;
20251;SDS011;10284;58.364;15.550;2023-05-29T08:35:17;2.45;;;1.05;;
20251;SDS011;10284;58.364;15.550;2023-05-29T08:37:43;1.48;;;1.00;;
20251;SDS011;10284;58.364;15.550;2023-05-29T08:40:08;4.13;;;1.13;;
20251;SDS011;10284;58.364;15.550;2023-05-29T08:42:45;1.30;;;1.10;;
20251;SDS011;10284;58.364;15.550;2023-05-29T08:45:13;1.02;;;0.80;;
20251;SDS011;10284;58.364;15.550;2023-05-29T08:47:39;2.88;;;1.02;;
20251;SDS011;10284;58.364;15.550;2023-05-29T08:50:06;2.97;;;1.00;;
20251;SDS011;10284;58.364;15.550;2023-05-29T08:52:33;1.58;;;0.82;;
20251;SDS011;10284;58.364;15.550;2023-05-29T08:55:02;2.33;;;1.10;;
20251;SDS011;10284;58.364;15.550;2023-05-29T08:57:29;2.47;;;1.10;;
20251;SDS011;10284;58.364;15.550;2023-05-29T08:59:55;1.88;;;0.90;;
20251;SDS011;10284;58.364;15.550;2023-05-29T09:02:20;4.70;;;1.13;;
20251;SDS011;10284;58.364;15.550;2023-05-29T09:04:46;2.88;;;1.10;;
20251;SDS011;10284;58.364;15.550;2023-05-29T09:07:15;2.50;;;1.02;;
20251;SDS011;10284;58.364;15.550;2023-05-29T09:09:42;2.80;;;1.30;;
20251;SDS011;10284;58.364;15.550;2023-05-29T09:12:07;2.40;;;0.90;;
20251;SDS011;10284;58.364;15.550;2023-05-29T09:14:38;1.67;;;0.95;;
20251;SDS011;10284;58.364;15.550;2023-05-29T09:17:04;3.25;;;0.88;;
20251;SDS011;10284;58.364;15.550;2023-05-29T09:19:32;2.15;;;0.90;;
20251;SDS011;10284;58.364;15.550;2023-05-29T09:22:04;2.50;;;0.88;;
20251;SDS011;10284;58.364;15.550;2023-05-29T09:24:35;3.00;;;0.93;;
20251;SDS011;10284;58.364;15.550;2023-05-29T09:27:03;1.95;;;1.20;;
20251;SDS011;10284;58.364;15.550;2023-05-29T09:29:32;1.67;;;0.98;;
20251;SDS011;10284;58.364;15.550;2023-05-29T09:31:58;1.33;;;1.00;;
20251;SDS011;10284;58.364;15.550;2023-05-29T09:34:25;1.33;;;0.95;;
20251;SDS011;10284;58.364;15.550;2023-05-29T09:37:00;2.45;;;1.10;;
20251;SDS011;10284;58.364;15.550;2023-05-29T09:39:47;2.55;;;1.10;;
20251;SDS011;10284;58.364;15.550;2023-05-29T09:42:13;1.73;;;0.77;;
20251;SDS011;10284;58.364;15.550;2023-05-29T09:44:40;2.90;;;1.23;;
20251;SDS011;10284;58.364;15.550;2023-05-29T09:47:05;2.58;;;1.25;;
20251;SDS011;10284;58.364;15.550;2023-05-29T09:49:31;2.35;;;0.93;;
20251;SDS011;10284;58.364;15.550;2023-05-29T09:51:57;3.17;;;1.05;;
20251;SDS011;10284;58.364;15.550;2023-05-29T09:54:24;1.83;;;1.00;;
20251;SDS011;10284;58.364;15.550;2023-05-29T09:56:53;6.40;;;1.00;;
20251;SDS011;10284;58.364;15.550;2023-05-29T09:59:20;3.30;;;1.20;;
20251;SDS011;10284;58.364;15.550;2023-05-29T10:01:48;3.42;;;0.90;;
20251;SDS011;10284;58.364;15.550;2023-05-29T10:04:14;1.42;;;0.90;;
20251;SDS011;10284;58.364;15.550;2023-05-29T10:06:41;2.15;;;0.80;;
20251;SDS011;10284;58.364;15.550;2023-05-29T10:09:11;3.30;;;0.90;;
20251;SDS011;10284;58.364;15.550;2023-05-29T10:11:39;1.55;;;0.70;;
20251;SDS011;10284;58.364;15.550;2023-05-29T10:14:07;1.48;;;0.80;;
20251;SDS011;10284;58.364;15.550;2023-05-29T10:16:35;2.30;;;0.70;;
20251;SDS011;10284;58.364;15.550;2023-05-29T10:19:06;1.77;;;1.00;;
20251;SDS011;10284;58.364;15.550;2023-05-29T10:21:32;2.75;;;0.90;;
20251;SDS011;10284;58.364;15.550;2023-05-29T10:24:02;2.65;;;1.00;;
20251;SDS011;10284;58.364;15.550;2023-05-29T10:26:31;2.50;;;0.80;;
20251;SDS011;10284;58.364;15.550;2023-05-29T10:34:42;1.50;;;0.70;;
20251;SDS011;10284;58.364;15.550;2023-05-29T10:40:11;1.50;;;0.82;;
20251;SDS011;10284;58.364;15.550;2023-05-29T10:42:48;1.00;;;0.70;;
20251;SDS011;10284;58.364;15.550;2023-05-29T10:48:40;3.17;;;0.90;;
20251;SDS011;10284;58.364;15.550;2023-05-29T10:50:53;1.60;;;0.82;;
20251;SDS011;10284;58.364;15.550;2023-05-29T10:53:30;2.85;;;0.90;;
20251;SDS011;10284;58.364;15.550;2023-05-29T10:55:56;1.85;;;0.63;;
20251;SDS011;10284;58.364;15.550;2023-05-29T10:58:24;2.60;;;0.68;;
20251;SDS011;10284;58.364;15.550;2023-05-29T11:00:51;2.33;;;0.70;;
20251;SDS011;10284;58.364;15.550;2023-05-29T11:03:26;1.75;;;0.60;;
20251;SDS011;10284;58.364;15.550;2023-05-29T11:11:32;2.25;;;0.70;;
20251;SDS011;10284;58.364;15.550;2023-05-29T11:14:01;1.70;;;1.00;;
20251;SDS011;10284;58.364;15.550;2023-05-29T11:18:59;2.67;;;0.65;;
20251;SDS011;10284;58.364;15.550;2023-05-29T11:24:22;1.30;;;0.70;;
20251;SDS011;10284;58.364;15.550;2023-05-29T11:26:52;1.90;;;0.70;;
20251;SDS011;10284;58.364;15.550;2023-05-29T11:29:22;2.10;;;0.65;;
20251;SDS011;10284;58.364;15.550;2023-05-29T11:31:49;1.23;;;0.50;;
20251;SDS011;10284;58.364;15.550;2023-05-29T11:34:28;2.45;;;0.50;;
20251;SDS011;10284;58.364;15.550;2023-05-29T11:37:01;1.92;;;0.70;;
20251;SDS011;10284;58.364;15.550;2023-05-29T11:39:27;0.57;;;0.57;;
20251;SDS011;10284;58.364;15.550;2023-05-29T11:41:53;4.28;;;0.73;;
20251;SDS011;10284;58.364;15.550;2023-05-29T11:44:19;1.80;;;0.50;;
20251;SDS011;10284;58.364;15.550;2023-05-29T11:46:45;0.60;;;0.50;;
20251;SDS011;10284;58.364;15.550;2023-05-29T11:49:11;2.05;;;0.60;;
20251;SDS011;10284;58.364;15.550;2023-05-29T11:51:36;1.05;;;0.50;;
20251;SDS011;10284;58.364;15.550;2023-05-29T11:54:02;0.63;;;0.52;;
20251;SDS011;10284;58.364;15.550;2023-05-29T11:56:28;0.45;;;0.38;;
20251;SDS011;10284;58.364;15.550;2023-05-29T11:58:54;1.75;;;0.70;;
20251;SDS011;10284;58.364;15.550;2023-05-29T12:01:25;1.17;;;0.43;;
20251;SDS011;10284;58.364;15.550;2023-05-29T12:03:51;2.92;;;0.60;;
20251;SDS011;10284;58.364;15.550;2023-05-29T12:06:30;0.38;;;0.38;;
20251;SDS011;10284;58.364;15.550;2023-05-29T12:09:03;1.40;;;0.60;;
20251;SDS011;10284;58.364;15.550;2023-05-29T12:11:29;1.20;;;0.50;;
20251;SDS011;10284;58.364;15.550;2023-05-29T12:13:56;1.33;;;0.60;;
20251;SDS011;10284;58.364;15.550;2023-05-29T12:16:22;0.50;;;0.50;;
20251;SDS011;10284;58.364;15.550;2023-05-29T12:18:48;1.95;;;0.50;;
20251;SDS011;10284;58.364;15.550;2023-05-29T12:21:14;0.63;;;0.60;;
20251;SDS011;10284;58.364;15.550;2023-05-29T12:23:39;1.13;;;0.40;;
20251;SDS011;10284;58.364;15.550;2023-05-29T12:26:05;0.60;;;0.50;;
20251;SDS011;10284;58.364;15.550;2023-05-29T12:28:30;1.35;;;0.40;;
20251;SDS011;10284;58.364;15.550;2023-05-29T12:30:59;0.90;;;0.43;;
20251;SDS011;10284;58.364;15.550;2023-05-29T12:33:25;1.75;;;0.80;;
20251;SDS011;10284;58.364;15.550;2023-05-29T12:35:53;1.50;;;0.57;;
20251;SDS011;10284;58.364;15.550;2023-05-29T12:38:18;0.50;;;0.50;;
20251;SDS011;10284;58.364;15.550;2023-05-29T12:40:47;1.65;;;0.50;;
20251;SDS011;10284;58.364;15.550;2023-05-29T12:43:13;0.50;;;0.40;;
20251;SDS011;10284;58.364;15.550;2023-05-29T12:45:39;0.60;;;0.50;;
20251;SDS011;10284;58.364;15.550;2023-05-29T12:48:05;1.70;;;0.60;;
20251;SDS011;10284;58.364;15.550;2023-05-29T12:50:32;2.20;;;0.60;;
20251;SDS011;10284;58.364;15.550;2023-05-29T12:53:03;1.02;;;0.60;;
20251;SDS011;10284;58.364;15.550;2023-05-29T12:55:30;1.20;;;0.52;;
20251;SDS011;10284;58.364;15.550;2023-05-29T12:58:03;1.80;;;0.70;;
20251;SDS011;10284;58.364;15.550;2023-05-29T13:00:47;0.50;;;0.50;;
20251;SDS011;10284;58.364;15.550;2023-05-29T13:03:12;0.90;;;0.57;;
20251;SDS011;10284;58.364;15.550;2023-05-29T13:05:38;0.77;;;0.55;;
20251;SDS011;10284;58.364;15.550;2023-05-29T13:08:03;0.52;;;0.50;;
20251;SDS011;10284;58.364;15.550;2023-05-29T13:10:31;2.28;;;0.60;;
20251;SDS011;10284;58.364;15.550;2023-05-29T13:12:56;2.08;;;0.52;;
20251;SDS011;10284;58.364;15.550;2023-05-29T13:15:24;1.50;;;0.60;;
20251;SDS011;10284;58.364;15.550;2023-05-29T13:17:50;2.83;;;0.60;;
20251;SDS011;10284;58.364;15.550;2023-05-29T13:20:19;1.48;;;0.45;;
20251;SDS011;10284;58.364;15.550;2023-05-29T13:22:45;3.22;;;0.45;;
20251;SDS011;10284;58.364;15.550;2023-05-29T13:25:12;1.40;;;0.50;;
20251;SDS011;10284;58.364;15.550;2023-05-29T13:27:39;1.88;;;0.88;;
20251;SDS011;10284;58.364;15.550;2023-05-29T13:30:06;0.93;;;0.43;;
20251;SDS011;10284;58.364;15.550;2023-05-29T13:32:33;1.30;;;0.63;;
20251;SDS011;10284;58.364;15.550;2023-05-29T13:34:58;0.65;;;0.65;;
20251;SDS011;10284;58.364;15.550;2023-05-29T13:37:24;1.60;;;0.80;;
20251;SDS011;10284;58.364;15.550;2023-05-29T13:39:49;1.80;;;0.57;;
20251;SDS011;10284;58.364;15.550;2023-05-29T13:42:15;0.77;;;0.57;;
20251;SDS011;10284;58.364;15.550;2023-05-29T13:44:41;1.33;;;0.60;;
20251;SDS011;10284;58.364;15.550;2023-05-29T13:47:06;0.60;;;0.43;;
20251;SDS011;10284;58.364;15.550;2023-05-29T13:49:33;1.98;;;0.60;;
20251;SDS011;10284;58.364;15.550;2023-05-29T13:51:59;1.92;;;0.70;;
20251;SDS011;10284;58.364;15.550;2023-05-29T13:54:25;1.05;;;0.60;;
20251;SDS011;10284;58.364;15.550;2023-05-29T13:56:52;4.03;;;1.08;;
20251;SDS011;10284;58.364;15.550;2023-05-29T13:59:17;1.25;;;0.50;;
20251;SDS011;10284;58.364;15.550;2023-05-29T14:01:43;2.47;;;0.50;;
20251;SDS011;10284;58.364;15.550;2023-05-29T14:04:09;0.60;;;0.50;;
20251;SDS011;10284;58.364;15.550;2023-05-29T14:06:34;1.63;;;0.70;;
20251;SDS011;10284;58.364;15.550;2023-05-29T14:09:01;1.95;;;0.50;;
20251;SDS011;10284;58.364;15.550;2023-05-29T14:11:27;0.63;;;0.50;;
20251;SDS011;10284;58.364;15.550;2023-05-29T14:13:52;1.63;;;0.50;;
20251;SDS011;10284;58.364;15.550;2023-05-29T14:16:18;1.48;;;0.52;;
20251;SDS011;10284;58.364;15.550;2023-05-29T14:18:43;4.80;;;0.75;;
20251;SDS011;10284;58.364;15.550;2023-05-29T14:21:09;2.08;;;0.75;;
20251;SDS011;10284;58.364;15.550;2023-05-29T14:23:35;1.33;;;0.75;;
20251;SDS011;10284;58.364;15.550;2023-05-29T14:26:01;1.73;;;0.60;;
20251;SDS011;10284;58.364;15.550;2023-05-29T14:28:26;1.58;;;0.60;;
20251;SDS011;10284;58.364;15.550;2023-05-29T14:30:52;3.60;;;0.80;;
20251;SDS011;10284;58.364;15.550;2023-05-29T14:33:17;3.45;;;0.73;;
20251;SDS011;10284;58.364;15.550;2023-05-29T14:35:43;1.27;;;0.70;;
20251;SDS011;10284;58.364;15.550;2023-05-29T14:38:08;3.03;;;0.70;;
20251;SDS011;10284;58.364;15.550;2023-05-29T14:40:34;1.63;;;0.63;;
20251;SDS011;10284;58.364;15.550;2023-05-29T14:43:00;1.10;;;0.50;;
20251;SDS011;10284;58.364;15.550;2023-05-29T14:45:26;1.20;;;0.60;;
20251;SDS011;10284;58.364;15.550;2023-05-29T14:47:52;1.38;;;0.80;;
20251;SDS011;10284;58.364;15.550;2023-05-29T14:50:17;3.55;;;0.70;;
20251;SDS011;10284;58.364;15.550;2023-05-29T14:52:42;2.05;;;0.52;;
20251;SDS011;10284;58.364;15.550;2023-05-29T14:55:08;1.17;;;0.60;;
20251;SDS011;10284;58.364;15.550;2023-05-29T14:57:33;2.08;;;0.65;;
20251;SDS011;10284;58.364;15.550;2023-05-29T15:00:03;1.02;;;0.60;;